Newburg Corners, Wisconsin
Current Conditions -  °F | °C
As of 6:10 PM on Monday 22 Dec 2014 (Local Time) from KLSE Reporting Station
Light Rain Light Rain  
Wind Chill: 28°   Ceiling: 1600
Heat Index: 36°   Visibility: 5mi
Dew Point: 33°   Wind: 13mph
Humidity: 89%   Direction: 90°E
Pressure: 29.61"   Gusts: NA
Location:  43.8385°N, 90.9811°W
Report Text: KLSE 230010Z 09011KT 5SM -RA BR SCT011 BKN016 OVC030 02/01 A2961 RMK AO2 P0001 T00220006
Loading
Personal Weather Stations






























Interactive Weather Map New forecast layout! Learn more

10-Day Weather Forecast

Advertisements
Track Severe Weather on mobile